Time;durP1;ratioP1;P1;durP2;ratioP2;P2;SDS_P1;SDS_P2;PMS_P1;PMS_P2;Temp;Humidity;BMP_temperature;BMP_pressure;BME280_temperature;BME280_humidity;BME280_pressure;Samples;Min_cycle;Max_cycle;Signal;HPM_P1;HPM_P2
2023/03/03 00:01:04;;;;;;;5.35;1.00;;;;;;;;;;4993095;28;20505;-67
2023/03/03 00:03:33;;;;;;;4.38;0.60;;;;;;;;;;4974968;28;20061;-68
2023/03/03 00:06:01;;;;;;;6.13;0.90;;;;;;;;;;4994790;28;20057;-68
2023/03/03 00:08:28;;;;;;;5.20;0.70;;;;;;;;;;4990372;28;20706;-67
2023/03/03 00:10:55;;;;;;;4.90;0.77;;;;;;;;;;4992220;28;20054;-67
2023/03/03 00:13:23;;;;;;;3.55;0.80;;;;;;;;;;4992445;28;20061;-67
2023/03/03 00:15:51;;;;;;;6.70;0.70;;;;;;;;;;4992957;28;20038;-67
2023/03/03 00:18:22;;;;;;;1.52;0.63;;;;;;;;;;4974908;28;20515;-67
2023/03/03 00:20:53;;;;;;;7.00;0.93;;;;;;;;;;4993952;28;20457;-67
2023/03/03 00:23:24;;;;;;;8.13;0.80;;;;;;;;;;4978131;28;20050;-68
2023/03/03 00:25:53;;;;;;;5.65;0.80;;;;;;;;;;4989285;28;20112;-67
2023/03/03 00:28:23;;;;;;;9.25;0.88;;;;;;;;;;4992149;28;20054;-67
2023/03/03 00:30:51;;;;;;;7.15;0.90;;;;;;;;;;4994225;28;20563;-67
2023/03/03 00:33:31;;;;;;;6.60;0.70;;;;;;;;;;4990836;28;20042;-67
2023/03/03 00:36:01;;;;;;;2.60;0.55;;;;;;;;;;4992130;28;20426;-67
2023/03/03 00:38:29;;;;;;;8.98;0.90;;;;;;;;;;4990699;28;20486;-67
2023/03/03 00:40:56;;;;;;;3.88;0.80;;;;;;;;;;4998102;28;20050;-67
2023/03/03 00:43:24;;;;;;;3.40;0.80;;;;;;;;;;4983322;28;20046;-67
2023/03/03 00:45:53;;;;;;;5.88;0.73;;;;;;;;;;5001538;28;20056;-67
2023/03/03 00:48:22;;;;;;;5.80;0.70;;;;;;;;;;4995802;28;20073;-67
2023/03/03 00:50:50;;;;;;;6.43;0.82;;;;;;;;;;4985490;28;20157;-67
2023/03/03 00:53:19;;;;;;;6.80;0.70;;;;;;;;;;5003112;28;20179;-68
2023/03/03 00:55:47;;;;;;;4.72;0.55;;;;;;;;;;4998679;28;20481;-67
2023/03/03 00:58:15;;;;;;;3.42;0.82;;;;;;;;;;5001525;28;20058;-67
2023/03/03 01:00:43;;;;;;;3.33;0.47;;;;;;;;;;4999995;28;20054;-67
2023/03/03 01:03:13;;;;;;;9.90;0.60;;;;;;;;;;4996375;28;20050;-67
2023/03/03 01:05:40;;;;;;;7.70;0.88;;;;;;;;;;4993137;28;20042;-67
2023/03/03 01:08:07;;;;;;;4.43;0.70;;;;;;;;;;4997807;28;20042;-67
2023/03/03 01:10:37;;;;;;;2.58;0.60;;;;;;;;;;4993790;28;20065;-67
2023/03/03 01:13:05;;;;;;;4.35;0.70;;;;;;;;;;4992070;28;20441;-67
2023/03/03 01:15:32;;;;;;;3.38;0.60;;;;;;;;;;4994031;28;20520;-67
2023/03/03 01:17:59;;;;;;;4.80;0.70;;;;;;;;;;4971834;28;20056;-67
2023/03/03 01:20:27;;;;;;;6.13;0.60;;;;;;;;;;4991901;28;20074;-67
2023/03/03 01:22:54;;;;;;;3.45;0.68;;;;;;;;;;4997345;28;20057;-67
2023/03/03 01:25:21;;;;;;;6.20;1.00;;;;;;;;;;4994392;28;20053;-67
2023/03/03 01:27:50;;;;;;;9.02;0.85;;;;;;;;;;4986133;28;20046;-68
2023/03/03 01:30:17;;;;;;;3.75;0.63;;;;;;;;;;4982175;28;20069;-67
2023/03/03 01:32:44;;;;;;;5.78;0.77;;;;;;;;;;4991759;28;20050;-67
2023/03/03 01:35:11;;;;;;;6.18;0.95;;;;;;;;;;4994498;28;20046;-68
2023/03/03 01:37:39;;;;;;;4.85;1.10;;;;;;;;;;4981768;28;20054;-67
2023/03/03 01:40:08;;;;;;;6.03;0.80;;;;;;;;;;4998691;28;20049;-67
2023/03/03 01:42:36;;;;;;;4.10;0.93;;;;;;;;;;4995967;28;20050;-67
2023/03/03 01:45:24;;;;;;;6.43;0.88;;;;;;;;;;4990973;28;20053;-67
2023/03/03 01:47:55;;;;;;;4.93;0.60;;;;;;;;;;4985988;28;20050;-67
2023/03/03 01:50:29;;;;;;;5.90;0.77;;;;;;;;;;4982403;28;20219;-67
2023/03/03 01:52:57;;;;;;;12.02;1.00;;;;;;;;;;4988582;28;20497;-67
2023/03/03 01:55:29;;;;;;;5.78;0.90;;;;;;;;;;4994777;28;20050;-67
2023/03/03 01:57:58;;;;;;;9.13;1.15;;;;;;;;;;4991710;28;20046;-67
2023/03/03 02:00:25;;;;;;;6.28;0.77;;;;;;;;;;4984879;28;20081;-67
2023/03/03 02:02:55;;;;;;;2.63;0.80;;;;;;;;;;4987768;28;20073;-67
2023/03/03 02:05:23;;;;;;;1.83;0.55;;;;;;;;;;4993573;28;20054;-67
2023/03/03 02:07:50;;;;;;;16.45;1.00;;;;;;;;;;4972993;28;20055;-68
2023/03/03 02:10:18;;;;;;;5.82;0.80;;;;;;;;;;4987346;28;20576;-68
2023/03/03 02:12:47;;;;;;;4.00;0.73;;;;;;;;;;4990805;28;20064;-67
2023/03/03 02:15:18;;;;;;;7.47;0.98;;;;;;;;;;4989084;28;20050;-67
2023/03/03 02:17:46;;;;;;;6.72;0.88;;;;;;;;;;4986632;28;20143;-67
2023/03/03 02:20:17;;;;;;;4.97;0.95;;;;;;;;;;4982916;28;20065;-67
2023/03/03 02:22:48;;;;;;;10.15;0.80;;;;;;;;;;4997173;28;20370;-67
2023/03/03 02:25:19;;;;;;;5.13;0.80;;;;;;;;;;4988312;28;20062;-67
2023/03/03 02:27:48;;;;;;;10.15;0.88;;;;;;;;;;4991490;28;20061;-67
2023/03/03 02:30:16;;;;;;;4.15;0.70;;;;;;;;;;4992066;28;20428;-67
2023/03/03 02:32:43;;;;;;;6.30;0.80;;;;;;;;;;4997980;28;20058;-67
2023/03/03 02:35:28;;;;;;;4.63;0.70;;;;;;;;;;4989726;28;20046;-67
2023/03/03 02:37:56;;;;;;;3.08;0.80;;;;;;;;;;4992684;28;20046;-67
2023/03/03 02:40:26;;;;;;;3.58;0.63;;;;;;;;;;4997761;28;20400;-67
2023/03/03 02:42:56;;;;;;;7.70;0.88;;;;;;;;;;4995690;28;20042;-67
2023/03/03 02:45:23;;;;;;;6.78;0.70;;;;;;;;;;4981058;28;20054;-67
2023/03/03 02:47:51;;;;;;;8.07;1.00;;;;;;;;;;4994103;28;20060;-67
2023/03/03 02:50:19;;;;;;;3.53;0.70;;;;;;;;;;4984129;28;20410;-68
2023/03/03 02:52:46;;;;;;;4.82;0.98;;;;;;;;;;4983793;28;20054;-67
2023/03/03 02:55:13;;;;;;;3.90;0.60;;;;;;;;;;4978896;28;20104;-68
2023/03/03 02:57:40;;;;;;;4.07;0.85;;;;;;;;;;4998246;28;20132;-67
2023/03/03 03:00:10;;;;;;;3.35;0.60;;;;;;;;;;4996269;28;20540;-67
2023/03/03 03:02:37;;;;;;;7.30;0.70;;;;;;;;;;4979760;28;20054;-67
2023/03/03 03:05:05;;;;;;;7.97;0.73;;;;;;;;;;4996401;28;20058;-67
2023/03/03 03:07:32;;;;;;;4.82;0.70;;;;;;;;;;4990627;28;20050;-67
2023/03/03 03:09:59;;;;;;;5.75;1.00;;;;;;;;;;4982953;28;20418;-67
2023/03/03 03:12:27;;;;;;;3.95;0.68;;;;;;;;;;4994447;28;20089;-67
2023/03/03 03:14:54;;;;;;;4.63;1.05;;;;;;;;;;4996696;28;20398;-68
2023/03/03 03:17:22;;;;;;;8.80;1.05;;;;;;;;;;4985917;28;20060;-68
2023/03/03 03:19:50;;;;;;;6.80;0.85;;;;;;;;;;4994914;28;20045;-68
2023/03/03 03:22:18;;;;;;;4.97;0.80;;;;;;;;;;4982886;28;20386;-67
2023/03/03 03:24:45;;;;;;;7.35;0.98;;;;;;;;;;4990967;28;20049;-67
2023/03/03 03:27:12;;;;;;;8.27;1.92;;;;;;;;;;4989131;28;20060;-68
2023/03/03 03:29:40;;;;;;;3.40;0.77;;;;;;;;;;4995911;28;20058;-68
2023/03/03 03:32:07;;;;;;;4.45;0.85;;;;;;;;;;4996389;28;20046;-67
2023/03/03 03:34:36;;;;;;;9.60;0.98;;;;;;;;;;4982167;28;20050;-68
2023/03/03 03:37:03;;;;;;;6.45;0.63;;;;;;;;;;4989611;28;20054;-67
2023/03/03 03:39:30;;;;;;;10.13;0.75;;;;;;;;;;4991052;28;20042;-68
2023/03/03 03:41:57;;;;;;;6.55;1.02;;;;;;;;;;4991430;28;20058;-67
2023/03/03 03:44:25;;;;;;;2.72;0.60;;;;;;;;;;4992235;28;20428;-68
2023/03/03 03:46:52;;;;;;;6.38;0.60;;;;;;;;;;4988265;28;20512;-67
2023/03/03 03:49:20;;;;;;;6.13;0.50;;;;;;;;;;4994120;28;20516;-67
2023/03/03 03:51:49;;;;;;;4.65;0.40;;;;;;;;;;4987519;28;20054;-67
2023/03/03 03:54:16;;;;;;;4.68;0.77;;;;;;;;;;5000094;28;20077;-67
2023/03/03 03:56:43;;;;;;;6.25;0.90;;;;;;;;;;4993010;28;20142;-67
2023/03/03 03:59:10;;;;;;;5.53;0.70;;;;;;;;;;5001247;28;20413;-68
2023/03/03 04:01:38;;;;;;;5.07;0.57;;;;;;;;;;4972745;28;20054;-67
2023/03/03 04:04:05;;;;;;;10.90;0.70;;;;;;;;;;4986652;28;20050;-68
2023/03/03 04:06:32;;;;;;;3.75;0.43;;;;;;;;;;4992561;28;20058;-67
2023/03/03 04:09:01;;;;;;;8.60;0.70;;;;;;;;;;4982746;28;20047;-67
2023/03/03 04:11:28;;;;;;;3.78;0.70;;;;;;;;;;4996428;28;20046;-67
2023/03/03 04:13:55;;;;;;;5.40;1.08;;;;;;;;;;4996975;28;20062;-67
2023/03/03 04:16:23;;;;;;;2.53;0.60;;;;;;;;;;4997570;28;20042;-67
2023/03/03 04:18:50;;;;;;;6.85;0.80;;;;;;;;;;4974712;28;20056;-67
2023/03/03 04:21:17;;;;;;;2.35;0.60;;;;;;;;;;4987678;28;20050;-67
2023/03/03 04:23:45;;;;;;;7.35;0.80;;;;;;;;;;4992250;28;20062;-67
2023/03/03 04:26:13;;;;;;;4.20;0.60;;;;;;;;;;4995466;28;20061;-68
2023/03/03 04:28:41;;;;;;;4.38;0.52;;;;;;;;;;4972597;28;20071;-67
2023/03/03 04:31:08;;;;;;;9.70;0.80;;;;;;;;;;4994621;28;20077;-67
2023/03/03 04:33:35;;;;;;;3.20;0.50;;;;;;;;;;4979802;28;20057;-67
2023/03/03 04:36:02;;;;;;;4.20;1.17;;;;;;;;;;4991912;28;20485;-67
2023/03/03 04:38:30;;;;;;;10.75;0.68;;;;;;;;;;4989905;28;20073;-67
2023/03/03 04:40:57;;;;;;;5.28;0.85;;;;;;;;;;4985680;28;20058;-67
2023/03/03 04:43:26;;;;;;;3.65;0.77;;;;;;;;;;4992415;28;20046;-67
2023/03/03 04:45:53;;;;;;;4.45;0.70;;;;;;;;;;5001110;28;20057;-67
2023/03/03 04:48:20;;;;;;;3.53;0.60;;;;;;;;;;4998934;28;20128;-67
2023/03/03 04:50:48;;;;;;;7.55;0.98;;;;;;;;;;4997474;28;20053;-68
2023/03/03 04:53:15;;;;;;;5.43;0.60;;;;;;;;;;4996883;28;20046;-67
2023/03/03 04:55:42;;;;;;;4.00;0.80;;;;;;;;;;5000850;28;20064;-67
2023/03/03 04:58:09;;;;;;;3.92;0.57;;;;;;;;;;5002970;28;20511;-67
2023/03/03 05:00:38;;;;;;;9.05;0.80;;;;;;;;;;4996292;28;20086;-67
2023/03/03 05:03:05;;;;;;;5.90;0.57;;;;;;;;;;5002054;28;20129;-67
2023/03/03 05:05:33;;;;;;;8.82;1.33;;;;;;;;;;4979830;28;20205;-67
2023/03/03 05:08:00;;;;;;;5.07;0.75;;;;;;;;;;4991724;28;20050;-67
2023/03/03 05:10:27;;;;;;;5.55;0.88;;;;;;;;;;4998820;28;20049;-67
2023/03/03 05:12:55;;;;;;;6.75;0.80;;;;;;;;;;4995542;28;20050;-68
2023/03/03 05:15:22;;;;;;;8.23;0.80;;;;;;;;;;4995413;28;20045;-68
2023/03/03 05:17:52;;;;;;;4.20;0.70;;;;;;;;;;4986023;28;20057;-67
2023/03/03 05:20:19;;;;;;;5.20;0.77;;;;;;;;;;4994739;28;20046;-67
2023/03/03 05:22:47;;;;;;;14.50;1.35;;;;;;;;;;4996920;28;20058;-67
2023/03/03 05:25:14;;;;;;;8.50;0.75;;;;;;;;;;4997657;28;20398;-68
2023/03/03 05:27:42;;;;;;;3.28;0.57;;;;;;;;;;4990414;28;20050;-67
2023/03/03 05:30:10;;;;;;;4.35;0.80;;;;;;;;;;4986758;28;20054;-67
2023/03/03 05:32:38;;;;;;;5.18;0.60;;;;;;;;;;4992317;28;20054;-67
2023/03/03 05:35:07;;;;;;;9.77;0.88;;;;;;;;;;4993412;28;20046;-67
2023/03/03 05:37:34;;;;;;;12.10;0.60;;;;;;;;;;4995374;28;20502;-67
2023/03/03 05:40:02;;;;;;;9.00;0.82;;;;;;;;;;4993796;28;20466;-67
2023/03/03 05:42:30;;;;;;;9.50;0.60;;;;;;;;;;4991847;28;20125;-67
2023/03/03 05:44:57;;;;;;;3.33;0.70;;;;;;;;;;4992778;28;20440;-67
2023/03/03 05:47:24;;;;;;;3.05;0.50;;;;;;;;;;4997360;28;20050;-67
2023/03/03 05:49:51;;;;;;;7.57;1.08;;;;;;;;;;4997234;28;20052;-67
2023/03/03 05:52:20;;;;;;;5.25;0.77;;;;;;;;;;4998047;28;20053;-67
2023/03/03 05:54:47;;;;;;;6.40;0.80;;;;;;;;;;4993322;28;20060;-67
2023/03/03 05:57:15;;;;;;;3.45;0.60;;;;;;;;;;4989038;28;20614;-67
2023/03/03 05:59:42;;;;;;;4.57;0.70;;;;;;;;;;5001314;28;20049;-67
2023/03/03 06:02:09;;;;;;;3.90;0.65;;;;;;;;;;4996332;28;20497;-67
2023/03/03 06:04:37;;;;;;;2.15;0.60;;;;;;;;;;4995612;28;20632;-67
2023/03/03 06:07:04;;;;;;;3.60;0.80;;;;;;;;;;5001217;28;20053;-67
2023/03/03 06:09:33;;;;;;;6.43;1.25;;;;;;;;;;4987464;28;20742;-67
2023/03/03 06:12:00;;;;;;;6.95;0.95;;;;;;;;;;4978430;28;20050;-67
2023/03/03 06:14:27;;;;;;;3.95;0.90;;;;;;;;;;4970872;28;20062;-68
2023/03/03 06:16:56;;;;;;;4.68;0.70;;;;;;;;;;4990504;28;20462;-67
2023/03/03 06:19:23;;;;;;;14.38;1.20;;;;;;;;;;4980684;28;20358;-67
2023/03/03 06:21:51;;;;;;;7.00;0.90;;;;;;;;;;4995549;28;20073;-67
2023/03/03 06:24:18;;;;;;;7.32;1.00;;;;;;;;;;4990879;28;20096;-67
2023/03/03 06:26:47;;;;;;;6.97;0.98;;;;;;;;;;4978117;28;20061;-67
2023/03/03 06:29:14;;;;;;;10.63;1.52;;;;;;;;;;4992047;28;20057;-67
2023/03/03 06:31:42;;;;;;;4.55;1.08;;;;;;;;;;4989434;28;20052;-68
2023/03/03 06:34:09;;;;;;;8.98;0.80;;;;;;;;;;4991093;28;20053;-67
2023/03/03 06:36:36;;;;;;;5.70;1.27;;;;;;;;;;4989203;28;20054;-67
2023/03/03 06:39:03;;;;;;;6.72;0.80;;;;;;;;;;4993577;28;20054;-67
2023/03/03 06:41:31;;;;;;;5.47;1.02;;;;;;;;;;5000829;28;20056;-68
2023/03/03 06:44:00;;;;;;;5.43;1.50;;;;;;;;;;4989989;28;20052;-67
2023/03/03 06:46:27;;;;;;;4.32;1.70;;;;;;;;;;4993460;28;20085;-67
2023/03/03 06:48:54;;;;;;;6.78;1.00;;;;;;;;;;4989500;28;20046;-67
2023/03/03 06:51:25;;;;;;;9.02;1.83;;;;;;;;;;4984960;28;20393;-67
2023/03/03 06:53:54;;;;;;;4.97;0.80;;;;;;;;;;4990288;28;20475;-67
2023/03/03 06:56:21;;;;;;;5.65;0.90;;;;;;;;;;4993070;28;20056;-68
2023/03/03 06:58:49;;;;;;;3.15;0.98;;;;;;;;;;4995242;28;20516;-67
2023/03/03 07:01:18;;;;;;;29.00;2.35;;;;;;;;;;4990772;28;20050;-66
2023/03/03 07:03:46;;;;;;;8.05;1.23;;;;;;;;;;4997113;28;20060;-67
2023/03/03 07:06:21;;;;;;;3.83;1.00;;;;;;;;;;4986205;28;20047;-67
2023/03/03 07:08:48;;;;;;;10.02;1.20;;;;;;;;;;4976214;28;20540;-67
2023/03/03 07:11:18;;;;;;;6.65;1.35;;;;;;;;;;4989330;28;20058;-67
2023/03/03 07:13:47;;;;;;;7.82;1.67;;;;;;;;;;4971416;28;20593;-67
2023/03/03 07:16:15;;;;;;;6.18;1.33;;;;;;;;;;4984021;28;20076;-68
2023/03/03 07:18:49;;;;;;;9.10;1.40;;;;;;;;;;4985515;28;20054;-67
2023/03/03 07:21:18;;;;;;;7.70;2.03;;;;;;;;;;4967933;28;20051;-68
2023/03/03 07:23:46;;;;;;;5.95;1.50;;;;;;;;;;4983662;28;20046;-67
2023/03/03 07:26:14;;;;;;;15.82;2.65;;;;;;;;;;4980613;28;20046;-67
2023/03/03 07:28:43;;;;;;;12.10;3.40;;;;;;;;;;4981452;28;20046;-67
2023/03/03 07:31:31;;;;;;;9.20;1.70;;;;;;;;;;4983255;28;20050;-68
2023/03/03 07:34:00;;;;;;;8.95;1.50;;;;;;;;;;4984870;28;20289;-68
2023/03/03 07:36:29;;;;;;;11.43;1.63;;;;;;;;;;4972330;28;20057;-67
2023/03/03 07:38:59;;;;;;;6.40;1.80;;;;;;;;;;4975440;28;20069;-67
2023/03/03 07:41:27;;;;;;;8.52;1.63;;;;;;;;;;4993052;28;20489;-67
2023/03/03 07:43:54;;;;;;;9.95;1.30;;;;;;;;;;4976928;28;20401;-67
2023/03/03 07:46:35;;;;;;;9.00;1.50;;;;;;;;;;4981572;28;20050;-69
2023/03/03 07:49:15;;;;;;;9.00;1.52;;;;;;;;;;4987904;28;20133;-66
2023/03/03 07:51:42;;;;;;;8.27;1.17;;;;;;;;;;4987952;28;20050;-68
2023/03/03 07:54:19;;;;;;;11.57;1.38;;;;;;;;;;4987748;28;20090;-68
2023/03/03 07:56:47;;;;;;;8.38;1.50;;;;;;;;;;4971563;28;20055;-67
2023/03/03 07:59:19;;;;;;;12.88;1.67;;;;;;;;;;4990002;28;20061;-68
2023/03/03 08:01:48;;;;;;;11.97;1.23;;;;;;;;;;4969642;28;20054;-68
2023/03/03 08:04:22;;;;;;;15.80;1.17;;;;;;;;;;4987154;28;20312;-68
2023/03/03 08:06:50;;;;;;;8.20;0.95;;;;;;;;;;4984197;28;20085;-68
2023/03/03 08:09:37;;;;;;;13.88;1.45;;;;;;;;;;4983959;28;20050;-68
2023/03/03 08:12:28;;;;;;;3.42;0.80;;;;;;;;;;4989022;28;20069;-66
2023/03/03 08:14:57;;;;;;;4.38;0.82;;;;;;;;;;4973678;28;20053;-67
2023/03/03 08:17:25;;;;;;;9.20;0.88;;;;;;;;;;4969703;28;20041;-68
2023/03/03 08:19:55;;;;;;;6.72;0.80;;;;;;;;;;4989851;28;20141;-69
2023/03/03 08:22:29;;;;;;;5.05;0.77;;;;;;;;;;4985613;28;20406;-68
2023/03/03 08:24:56;;;;;;;9.20;0.90;;;;;;;;;;4994718;28;20097;-68
2023/03/03 08:27:23;;;;;;;10.20;1.92;;;;;;;;;;4988032;28;20052;-68
2023/03/03 08:29:51;;;;;;;3.80;0.80;;;;;;;;;;4991961;28;20050;-68
2023/03/03 08:32:18;;;;;;;6.78;0.95;;;;;;;;;;4982257;28;20132;-67
2023/03/03 08:34:45;;;;;;;5.53;0.80;;;;;;;;;;4990880;28;20065;-67
2023/03/03 08:37:14;;;;;;;3.65;1.08;;;;;;;;;;4994276;28;20133;-66
2023/03/03 08:39:41;;;;;;;6.90;0.80;;;;;;;;;;4998104;28;20405;-68
2023/03/03 08:42:09;;;;;;;4.22;0.75;;;;;;;;;;4995975;28;20054;-68
2023/03/03 08:44:36;;;;;;;3.17;0.63;;;;;;;;;;4985620;28;20070;-67
2023/03/03 08:47:03;;;;;;;6.15;0.80;;;;;;;;;;4989375;28;20439;-68
2023/03/03 08:49:31;;;;;;;8.65;0.75;;;;;;;;;;4985171;28;20061;-67
2023/03/03 08:51:59;;;;;;;1.95;0.60;;;;;;;;;;4970605;28;20082;-67
2023/03/03 08:54:28;;;;;;;4.40;0.60;;;;;;;;;;4988815;28;20112;-69
2023/03/03 08:56:55;;;;;;;2.50;0.57;;;;;;;;;;4990036;28;20050;-68
2023/03/03 08:59:22;;;;;;;30.25;11.88;;;;;;;;;;4981491;28;20046;-69
2023/03/03 09:01:50;;;;;;;64.85;30.13;;;;;;;;;;4985713;28;20066;-68
2023/03/03 09:04:17;;;;;;;8.45;2.78;;;;;;;;;;4986922;28;20685;-68
2023/03/03 09:06:44;;;;;;;12.65;7.65;;;;;;;;;;4988702;28;20458;-68
2023/03/03 09:09:11;;;;;;;4.05;1.10;;;;;;;;;;4992229;28;20057;-69
2023/03/03 09:11:42;;;;;;;8.90;1.70;;;;;;;;;;4997912;28;20046;-68
2023/03/03 09:14:11;;;;;;;5.05;1.13;;;;;;;;;;4992077;28;20513;-68
2023/03/03 09:16:40;;;;;;;6.03;1.13;;;;;;;;;;4973724;28;20062;-68
2023/03/03 09:19:25;;;;;;;2.35;0.80;;;;;;;;;;4981096;28;20122;-68
2023/03/03 09:21:53;;;;;;;2.45;1.10;;;;;;;;;;4991253;28;20407;-68
2023/03/03 09:24:25;;;;;;;7.03;1.55;;;;;;;;;;4991790;28;20109;-68
2023/03/03 09:26:54;;;;;;;3.38;0.57;;;;;;;;;;4996614;28;20076;-69
2023/03/03 09:29:25;;;;;;;4.88;0.70;;;;;;;;;;4996572;28;20060;-68
2023/03/03 09:31:53;;;;;;;3.80;0.90;;;;;;;;;;4990654;28;20046;-69
2023/03/03 09:34:22;;;;;;;4.88;0.80;;;;;;;;;;4989995;28;20050;-69
2023/03/03 09:36:49;;;;;;;3.58;0.80;;;;;;;;;;4993110;28;20457;-69
2023/03/03 09:39:18;;;;;;;3.90;0.50;;;;;;;;;;4995321;28;20046;-68
2023/03/03 09:42:00;;;;;;;4.57;0.88;;;;;;;;;;4983109;28;20042;-68
2023/03/03 09:44:36;;;;;;;4.72;0.60;;;;;;;;;;4998658;28;20054;-68
2023/03/03 09:47:08;;;;;;;5.72;0.70;;;;;;;;;;4982575;28;20050;-68
2023/03/03 09:49:43;;;;;;;2.78;0.52;;;;;;;;;;4972264;28;20064;-68
2023/03/03 09:52:15;;;;;;;5.53;0.63;;;;;;;;;;4983697;28;20054;-68
2023/03/03 09:54:48;;;;;;;2.45;0.40;;;;;;;;;;4984253;28;20466;-69
2023/03/03 09:57:20;;;;;;;3.83;0.77;;;;;;;;;;4967867;28;20499;-68
2023/03/03 09:59:56;;;;;;;6.07;0.65;;;;;;;;;;4987449;28;20073;-68
2023/03/03 10:02:31;;;;;;;3.08;0.57;;;;;;;;;;4988881;28;20512;-68
2023/03/03 10:05:06;;;;;;;7.80;0.70;;;;;;;;;;4984608;28;20057;-68
2023/03/03 10:07:39;;;;;;;4.18;0.40;;;;;;;;;;4989757;28;20081;-68
2023/03/03 10:10:06;;;;;;;;;;;;;;;;;;4990542;28;20405;-68
2023/03/03 10:12:37;;;;;;;5.65;1.27;;;;;;;;;;4990283;28;19929;-68
2023/03/03 10:15:14;;;;;;;6.15;0.80;;;;;;;;;;4990679;28;20058;-69
2023/03/03 10:17:48;;;;;;;2.58;0.40;;;;;;;;;;4984717;28;20056;-68
2023/03/03 10:20:24;;;;;;;5.57;0.98;;;;;;;;;;4971825;28;20058;-69
2023/03/03 10:22:53;;;;;;;4.10;0.77;;;;;;;;;;4993798;28;20048;-68
2023/03/03 10:25:29;;;;;;;6.68;0.90;;;;;;;;;;4989220;28;20059;-68
2023/03/03 10:28:05;;;;;;;3.67;0.80;;;;;;;;;;4992656;28;20057;-68
2023/03/03 10:30:39;;;;;;;4.85;0.77;;;;;;;;;;5002064;28;20050;-68
2023/03/03 10:33:10;;;;;;;3.75;0.82;;;;;;;;;;4994934;28;20050;-68
2023/03/03 10:35:42;;;;;;;5.05;1.45;;;;;;;;;;4986097;28;20049;-67
2023/03/03 10:38:17;;;;;;;6.30;0.73;;;;;;;;;;4985666;28;20363;-68
2023/03/03 10:40:46;;;;;;;3.92;0.73;;;;;;;;;;4990385;28;20046;-67
2023/03/03 10:43:34;;;;;;;10.05;0.85;;;;;;;;;;4988667;28;20072;-67
2023/03/03 10:46:13;;;;;;;5.40;0.60;;;;;;;;;;4966216;28;20650;-68
2023/03/03 10:48:51;;;;;;;8.00;0.60;;;;;;;;;;4990589;28;20426;-68
2023/03/03 10:51:23;;;;;;;6.60;0.80;;;;;;;;;;4989549;28;20129;-68
2023/03/03 10:53:54;;;;;;;4.45;0.60;;;;;;;;;;4994106;28;20077;-68
2023/03/03 10:56:28;;;;;;;4.82;0.73;;;;;;;;;;4987408;28;20054;-68
2023/03/03 10:59:04;;;;;;;3.28;0.40;;;;;;;;;;4991574;28;20124;-68
2023/03/03 11:01:45;;;;;;;11.48;0.93;;;;;;;;;;4987822;28;20129;-68
2023/03/03 11:04:30;;;;;;;7.22;0.98;;;;;;;;;;4988445;28;20050;-68
2023/03/03 11:07:02;;;;;;;27.95;13.48;;;;;;;;;;4983908;28;20085;-67
2023/03/03 11:09:39;;;;;;;7.50;1.30;;;;;;;;;;4994048;28;20050;-68
2023/03/03 11:12:09;;;;;;;28.38;11.60;;;;;;;;;;4987352;28;20105;-68
2023/03/03 11:14:40;;;;;;;48.83;21.63;;;;;;;;;;4998486;28;20120;-68
2023/03/03 11:17:14;;;;;;;7.35;2.13;;;;;;;;;;4984364;28;20074;-68
2023/03/03 11:19:51;;;;;;;32.65;16.75;;;;;;;;;;4985708;28;20101;-67
2023/03/03 11:22:29;;;;;;;21.27;9.63;;;;;;;;;;4995307;28;20061;-68
2023/03/03 11:25:02;;;;;;;10.57;2.20;;;;;;;;;;4996575;28;20081;-67
2023/03/03 11:27:36;;;;;;;8.63;1.73;;;;;;;;;;4982328;28;20060;-68
2023/03/03 11:30:15;;;;;;;15.75;1.20;;;;;;;;;;4995242;28;20053;-68
2023/03/03 11:32:49;;;;;;;6.00;0.90;;;;;;;;;;4993814;28;20054;-68
2023/03/03 11:35:22;;;;;;;7.45;1.02;;;;;;;;;;4994831;28;20434;-67
2023/03/03 11:37:54;;;;;;;5.88;0.90;;;;;;;;;;4973345;28;20054;-68
2023/03/03 11:40:25;;;;;;;8.98;1.10;;;;;;;;;;4993572;28;20050;-68
2023/03/03 11:42:56;;;;;;;7.95;1.10;;;;;;;;;;4997238;28;20050;-68
2023/03/03 11:45:36;;;;;;;6.70;1.42;;;;;;;;;;4973506;28;20086;-68
2023/03/03 11:48:09;;;;;;;10.40;1.30;;;;;;;;;;4993985;28;20054;-68
2023/03/03 11:50:37;;;;;;;7.17;1.60;;;;;;;;;;4992229;28;20782;-68
2023/03/03 11:53:10;;;;;;;9.00;1.30;;;;;;;;;;4991980;28;20050;-67
2023/03/03 11:55:39;;;;;;;8.57;1.55;;;;;;;;;;4994722;28;20058;-68
2023/03/03 11:58:09;;;;;;;12.15;1.48;;;;;;;;;;4993752;28;20493;-68
2023/03/03 12:00:41;;;;;;;12.90;2.72;;;;;;;;;;4995121;28;20050;-68
2023/03/03 12:03:16;;;;;;;12.65;2.10;;;;;;;;;;4988973;28;20469;-68
2023/03/03 12:05:53;;;;;;;13.13;1.95;;;;;;;;;;4976212;28;20053;-68
2023/03/03 12:08:29;;;;;;;14.00;1.73;;;;;;;;;;4995754;28;20050;-68
2023/03/03 12:10:59;;;;;;;14.30;1.70;;;;;;;;;;4991830;28;20053;-69
2023/03/03 12:13:30;;;;;;;19.02;2.08;;;;;;;;;;4975967;28;20523;-68
2023/03/03 12:16:05;;;;;;;12.45;1.50;;;;;;;;;;4995709;28;20050;-68
2023/03/03 12:18:59;;;;;;;13.15;1.85;;;;;;;;;;4994341;28;20082;-68
2023/03/03 12:21:33;;;;;;;20.52;2.33;;;;;;;;;;4968036;28;20050;-68
2023/03/03 12:24:06;;;;;;;9.60;1.75;;;;;;;;;;4989723;28;20513;-69
2023/03/03 12:26:38;;;;;;;18.50;2.80;;;;;;;;;;4994231;28;20078;-68
2023/03/03 12:29:07;;;;;;;22.33;2.17;;;;;;;;;;4975642;28;20043;-67
2023/03/03 12:31:40;;;;;;;17.80;2.10;;;;;;;;;;4992687;28;20054;-68
2023/03/03 12:34:13;;;;;;;24.42;2.95;;;;;;;;;;4976507;28;20049;-68
2023/03/03 12:37:04;;;;;;;20.45;3.42;;;;;;;;;;4997628;28;20049;-68
2023/03/03 12:39:41;;;;;;;23.05;2.97;;;;;;;;;;4981375;28;20057;-68
2023/03/03 12:42:13;;;;;;;24.25;4.13;;;;;;;;;;4996645;28;20500;-67
2023/03/03 12:44:43;;;;;;;19.15;2.42;;;;;;;;;;5000433;28;20054;-68
2023/03/03 12:47:17;;;;;;;19.33;2.45;;;;;;;;;;4997922;28;20699;-67
2023/03/03 12:49:50;;;;;;;25.02;3.00;;;;;;;;;;4996350;28;20370;-67
2023/03/03 12:52:23;;;;;;;17.30;2.47;;;;;;;;;;4995975;28;20058;-68
2023/03/03 12:54:58;;;;;;;25.30;2.70;;;;;;;;;;4995776;28;20051;-67
2023/03/03 12:57:30;;;;;;;19.02;2.42;;;;;;;;;;4978163;28;20069;-67
2023/03/03 13:00:16;;;;;;;12.40;2.03;;;;;;;;;;4992876;28;20057;-67
2023/03/03 13:02:45;;;;;;;15.10;3.08;;;;;;;;;;4982546;28;20070;-67
2023/03/03 13:05:30;;;;;;;15.13;2.45;;;;;;;;;;4996992;28;20050;-67
2023/03/03 13:08:05;;;;;;;18.50;2.75;;;;;;;;;;4991206;28;20105;-67
2023/03/03 13:10:36;;;;;;;18.55;3.10;;;;;;;;;;4999968;28;20053;-67
2023/03/03 13:13:07;;;;;;;23.88;2.80;;;;;;;;;;4996414;28;20129;-68
2023/03/03 13:15:36;;;;;;;29.10;6.55;;;;;;;;;;4992091;28;20050;-68
2023/03/03 13:18:10;;;;;;;29.88;5.57;;;;;;;;;;4992838;28;20070;-68
2023/03/03 13:20:42;;;;;;;22.45;3.92;;;;;;;;;;4992119;28;20121;-68
2023/03/03 13:23:11;;;;;;;55.30;18.80;;;;;;;;;;4992295;28;20130;-67
2023/03/03 13:25:46;;;;;;;30.52;7.63;;;;;;;;;;4992919;28;20101;-67
2023/03/03 13:28:17;;;;;;;40.10;10.98;;;;;;;;;;4991751;28;20054;-67
2023/03/03 13:30:48;;;;;;;28.35;6.07;;;;;;;;;;4991819;28;20061;-68
2023/03/03 13:33:17;;;;;;;27.08;5.00;;;;;;;;;;4991046;28;20092;-68
2023/03/03 13:35:46;;;;;;;94.15;27.20;;;;;;;;;;4998508;28;20050;-68
2023/03/03 13:38:15;;;;;;;76.28;19.98;;;;;;;;;;4970488;28;20050;-67
2023/03/03 13:40:45;;;;;;;27.70;4.97;;;;;;;;;;4997707;28;20054;-67
2023/03/03 13:43:15;;;;;;;23.77;4.38;;;;;;;;;;4979984;28;20058;-66
2023/03/03 13:45:50;;;;;;;26.85;3.22;;;;;;;;;;4997539;28;20078;-67
2023/03/03 13:48:28;;;;;;;26.25;3.50;;;;;;;;;;4976359;28;20062;-68
2023/03/03 13:50:57;;;;;;;29.20;3.28;;;;;;;;;;4997317;28;20528;-67
2023/03/03 13:53:35;;;;;;;26.67;3.40;;;;;;;;;;4993421;28;20042;-67
2023/03/03 13:56:08;;;;;;;20.73;3.33;;;;;;;;;;4992181;28;20053;-66
2023/03/03 13:58:39;;;;;;;19.05;2.55;;;;;;;;;;4997130;28;20537;-67
2023/03/03 14:01:10;;;;;;;29.80;3.10;;;;;;;;;;4994328;28;20049;-67
2023/03/03 14:03:51;;;;;;;25.42;3.47;;;;;;;;;;4992315;28;20410;-68
2023/03/03 14:06:19;;;;;;;26.15;3.05;;;;;;;;;;4988989;28;20046;-66
2023/03/03 14:09:00;;;;;;;26.67;2.65;;;;;;;;;;4995579;28;20046;-67
2023/03/03 14:11:31;;;;;;;24.48;3.30;;;;;;;;;;4994599;28;20058;-66
2023/03/03 14:14:04;;;;;;;24.13;2.67;;;;;;;;;;4990257;28;20049;-66
2023/03/03 14:16:41;;;;;;;24.98;2.50;;;;;;;;;;4974854;28;20497;-66
2023/03/03 14:19:16;;;;;;;21.77;3.30;;;;;;;;;;4982167;28;20046;-67
2023/03/03 14:21:46;;;;;;;24.58;3.08;;;;;;;;;;4991565;28;20445;-66
2023/03/03 14:24:16;;;;;;;19.83;2.83;;;;;;;;;;4991724;28;20054;-67
2023/03/03 14:26:49;;;;;;;23.83;2.90;;;;;;;;;;5003131;28;20066;-67
2023/03/03 14:29:29;;;;;;;29.30;3.00;;;;;;;;;;5004825;28;20049;-66
2023/03/03 14:31:57;;;;;;;18.85;2.85;;;;;;;;;;4992133;28;20054;-66
2023/03/03 14:34:29;;;;;;;23.08;2.85;;;;;;;;;;4992253;28;20050;-67
2023/03/03 14:36:59;;;;;;;18.75;2.88;;;;;;;;;;4991977;28;20053;-67
2023/03/03 14:39:31;;;;;;;26.73;3.40;;;;;;;;;;4974853;28;20047;-67
2023/03/03 14:42:00;;;;;;;40.22;3.03;;;;;;;;;;4992368;28;20328;-66
2023/03/03 14:44:29;;;;;;;29.70;3.45;;;;;;;;;;4998707;28;20138;-68
2023/03/03 14:47:05;;;;;;;22.48;3.13;;;;;;;;;;5001919;28;20053;-67
2023/03/03 14:49:35;;;;;;;18.67;3.17;;;;;;;;;;4972216;28;20096;-66
2023/03/03 14:52:03;;;;;;;21.10;2.80;;;;;;;;;;4991794;28;20465;-68
2023/03/03 14:54:34;;;;;;;23.70;3.17;;;;;;;;;;4991574;28;20066;-67
2023/03/03 14:57:06;;;;;;;30.40;3.08;;;;;;;;;;4988923;28;20058;-66